Time;durP1;ratioP1;P1;durP2;ratioP2;P2;SDS_P1;SDS_P2;PMS_P1;PMS_P2;Temp;Humidity;BMP_temperature;BMP_pressure;BME280_temperature;BME280_humidity;BME280_pressure;Samples;Min_cycle;Max_cycle;Signal;HPM_P1;HPM_P2
2023/04/17 00:00:08;;;;;;;17.33;6.97;;;;;;;;;;5040571;28;20111;-79
2023/04/17 00:02:38;;;;;;;15.18;6.78;;;;;;;;;;5036744;28;20439;-80
2023/04/17 00:05:05;;;;;;;13.70;6.75;;;;;;;;;;5032916;28;20041;-80
2023/04/17 00:07:33;;;;;;;14.95;6.82;;;;;;;;;;5044482;28;20040;-80
2023/04/17 00:09:59;;;;;;;12.60;6.30;;;;;;;;;;5039699;28;20032;-79
2023/04/17 00:12:24;;;;;;;17.40;6.90;;;8.80;99.90;;;;;;5029742;28;20408;-80
2023/04/17 00:14:50;;;;;;;11.45;5.80;;;;;;;;;;5030737;28;20310;-80
2023/04/17 00:17:16;;;;;;;12.57;5.45;;;;;;;;;;5040475;28;20392;-82
2023/04/17 00:19:42;;;;;;;11.43;5.95;;;;;;;;;;5037303;28;20536;-81
2023/04/17 00:22:08;;;;;;;14.60;6.97;;;;;;;;;;5041462;28;20055;-80
2023/04/17 00:24:34;;;;;;;18.27;6.07;;;;;;;;;;5030764;28;20033;-80
2023/04/17 00:27:00;;;;;;;17.88;8.15;;;;;;;;;;5028812;28;20180;-81
2023/04/17 00:29:26;;;;;;;15.98;7.32;;;;;;;;;;5026977;28;20449;-80
2023/04/17 00:31:52;;;;;;;14.73;6.93;;;;;;;;;;5045016;28;20032;-81
2023/04/17 00:34:18;;;;;;;14.50;7.50;;;;;;;;;;5023945;28;20650;-81
2023/04/17 00:36:44;;;;;;;13.30;6.63;;;;;;;;;;5030851;28;20653;-81
2023/04/17 00:39:10;;;;;;;11.95;6.78;;;;;;;;;;5038062;28;20029;-80
2023/04/17 00:41:36;;;;;;;15.98;7.90;;;;;;;;;;5047631;28;20033;-81
2023/04/17 00:44:16;;;;;;;19.70;7.60;;;;;;;;;;5027834;28;20495;-81
2023/04/17 00:46:42;;;;;;;16.98;8.30;;;;;;;;;;5038920;28;20032;-81
2023/04/17 00:49:09;;;;;;;18.77;6.68;;;8.30;99.90;;;;;;5038972;28;20424;-80
2023/04/17 00:51:35;;;;;;;19.48;7.93;;;;;;;;;;5033758;28;20064;-80
2023/04/17 00:54:01;;;;;;;13.82;6.32;;;;;;;;;;5028386;28;20052;-81
2023/04/17 00:56:28;;;;;;;14.70;7.25;;;;;;;;;;5025149;28;20247;-81
2023/04/17 00:58:54;;;;;;;16.77;6.85;;;;;;;;;;5032880;28;20021;-79
2023/04/17 01:01:21;;;;;;;16.42;7.88;;;;;;;;;;5034898;28;20026;-79
2023/04/17 01:03:48;;;;;;;16.30;7.22;;;;;;;;;;5032973;28;20040;-80
2023/04/17 01:06:14;;;;;;;19.50;7.93;;;;;;;;;;5029591;28;20274;-81
2023/04/17 01:08:41;;;;;;;16.08;7.55;;;;;;;;;;5034135;28;20017;-81
2023/04/17 01:11:07;;;;;;;14.93;7.13;;;;;;;;;;5037379;28;20029;-81
2023/04/17 01:13:33;;;;;;;13.55;7.03;;;;;;;;;;5029776;28;20086;-81
2023/04/17 01:15:59;;;;;;;12.65;6.90;;;;;;;;;;5024832;28;20063;-81
2023/04/17 01:18:25;;;;;;;15.20;6.97;;;8.70;99.90;;;;;;5033097;28;20063;-80
2023/04/17 01:20:51;;;;;;;14.82;7.00;;;;;;;;;;5041368;28;20112;-81
2023/04/17 01:23:29;;;;;;;14.55;7.28;;;;;;;;;;5027046;28;20021;-81
2023/04/17 01:25:55;;;;;;;14.30;6.78;;;;;;;;;;5026111;28;20551;-81
2023/04/17 01:28:33;;;;;;;14.02;6.60;;;;;;;;;;5031265;28;20021;-81
2023/04/17 01:30:59;;;;;;;15.52;7.25;;;;;;;;;;5039486;28;20302;-80
2023/04/17 01:33:25;;;;;;;21.17;9.18;;;;;;;;;;5035561;28;20047;-82
2023/04/17 01:35:51;;;;;;;15.07;6.38;;;;;;;;;;5058289;28;20029;-82
2023/04/17 01:38:17;;;;;;;16.85;7.20;;;;;;;;;;5062639;28;20029;-81
2023/04/17 01:40:44;;;;;;;12.40;7.28;;;;;;;;;;5039472;28;20114;-81
2023/04/17 01:43:10;;;;;;;15.07;8.27;;;;;;;;;;5034485;28;20529;-81
2023/04/17 01:45:36;;;;;;;13.52;6.93;;;;;;;;;;5036502;28;20036;-80
2023/04/17 01:48:02;;;;;;;17.67;7.18;;;;;;;;;;5037184;28;20068;-81
2023/04/17 01:50:28;;;;;;;15.82;7.25;;;;;;;;;;5035943;28;20097;-81
2023/04/17 01:52:54;;;;;;;17.90;7.57;;;;;;;;;;5035187;28;20455;-81
2023/04/17 01:55:20;;;;;;;14.48;6.88;;;;;;;;;;5035322;28;20010;-81
2023/04/17 01:57:50;;;;;;;11.75;6.30;;;;;;;;;;5030256;28;20036;-81
2023/04/17 02:00:16;;;;;;;19.73;6.85;;;;;;;;;;5038551;28;20037;-81
2023/04/17 02:02:42;;;;;;;13.32;6.97;;;;;;;;;;5049973;28;20025;-80
2023/04/17 02:05:09;;;;;;;19.10;6.88;;;;;;;;;;5042899;28;20044;-80
2023/04/17 02:07:35;;;;;;;13.07;6.38;;;;;;;;;;5037747;28;20193;-81
2023/04/17 02:10:01;;;;;;;19.33;7.53;;;;;;;;;;5039656;28;20116;-80
2023/04/17 02:12:27;;;;;;;15.95;7.28;;;;;;;;;;5039051;28;20167;-78
2023/04/17 02:14:53;;;;;;;15.40;6.55;;;;;;;;;;5020115;28;20028;-82
2023/04/17 02:17:19;;;;;;;14.15;6.65;;;;;;;;;;5025450;28;20496;-80
2023/04/17 02:19:45;;;;;;;14.45;6.95;;;;;;;;;;5036659;28;20384;-82
2023/04/17 02:22:17;;;;;;;13.63;6.28;;;8.80;99.90;;;;;;5016720;28;20797;-79
2023/04/17 02:24:43;;;;;;;17.08;6.95;;;;;;;;;;5031096;28;20083;-80
2023/04/17 02:27:09;;;;;;;10.80;6.07;;;;;;;;;;5030359;28;20032;-81
2023/04/17 02:29:35;;;;;;;14.35;7.13;;;;;;;;;;5031287;28;20033;-80
2023/04/17 02:32:01;;;;;;;17.90;6.22;;;;;;;;;;5032221;28;20029;-80
2023/04/17 02:34:27;;;;;;;13.50;7.18;;;;;;;;;;5037328;28;20047;-80
2023/04/17 02:36:53;;;;;;;14.15;6.90;;;;;;;;;;5037489;28;20451;-80
2023/04/17 02:39:19;;;;;;;13.10;5.70;;;;;;;;;;5037456;28;20120;-80
2023/04/17 02:41:46;;;;;;;12.57;5.97;;;;;;;;;;5031208;28;20041;-81
2023/04/17 02:44:12;;;;;;;15.23;6.90;;;;;;;;;;5037994;28;20518;-80
2023/04/17 02:46:38;;;;;;;15.98;6.95;;;;;;;;;;5041733;28;20033;-80
2023/04/17 02:49:04;;;;;;;14.05;6.07;;;;;;;;;;5039378;28;20039;-80
2023/04/17 02:51:30;;;;;;;24.38;8.70;;;;;;;;;;5055198;28;20448;-81
2023/04/17 02:53:56;;;;;;;13.70;6.30;;;;;;;;;;5039250;28;20037;-80
2023/04/17 02:56:22;;;;;;;21.05;7.55;;;;;;;;;;5042432;28;20032;-79
2023/04/17 02:58:48;;;;;;;14.80;7.32;;;;;;;;;;5032989;28;20622;-80
2023/04/17 03:01:14;;;;;;;15.38;6.68;;;;;;;;;;5039262;28;20094;-79
2023/04/17 03:03:41;;;;;;;13.13;6.55;;;;;;;;;;5033841;28;20030;-81
2023/04/17 03:06:08;;;;;;;18.63;7.40;;;;;;;;;;5024516;28;20029;-80
2023/04/17 03:08:37;;;;;;;18.02;7.03;;;;;;;;;;5042051;28;20504;-81
2023/04/17 03:13:48;;;;;;;21.45;8.00;;;;;;;;;;5033175;28;20035;-79
2023/04/17 03:16:14;;;;;;;18.75;6.07;;;;;;;;;;5030742;28;20171;-81
2023/04/17 03:18:40;;;;;;;11.85;6.35;;;;;;;;;;5039560;28;20108;-80
2023/04/17 03:21:06;;;;;;;14.45;7.35;;;;;;;;;;5037818;28;20033;-80
2023/04/17 03:23:33;;;;;;;14.20;7.15;;;;;;;;;;5035372;28;20155;-80
2023/04/17 03:26:00;;;;;;;12.75;5.60;;;;;;;;;;5031725;28;20551;-81
2023/04/17 03:28:26;;;;;;;12.50;6.03;;;;;;;;;;5037793;28;20033;-80
2023/04/17 03:30:53;;;;;;;11.00;5.30;;;;;;;;;;5020654;28;20800;-80
2023/04/17 03:33:19;;;;;;;12.80;5.53;;;;;;;;;;5033500;28;20035;-81
2023/04/17 03:35:45;;;;;;;10.38;5.20;;;;;;;;;;5030310;28;20049;-81
2023/04/17 03:38:11;;;;;;;11.65;6.20;;;;;;;;;;5025560;28;20032;-80
2023/04/17 03:40:37;;;;;;;11.85;5.10;;;;;;;;;;5040544;28;20029;-81
2023/04/17 03:43:03;;;;;;;12.05;6.32;;;;;;;;;;5047898;28;20083;-80
2023/04/17 03:45:29;;;;;;;13.65;5.97;;;;;;;;;;5052436;28;20067;-80
2023/04/17 03:47:55;;;;;;;12.23;6.22;;;;;;;;;;5055646;28;20039;-80
2023/04/17 03:50:21;;;;;;;12.48;5.22;;;;;;;;;;5031208;28;20033;-80
2023/04/17 03:52:47;;;;;;;12.07;5.78;;;;;;;;;;5014326;28;20160;-81
2023/04/17 03:55:13;;;;;;;18.25;7.97;;;;;;;;;;5018220;28;20063;-80
2023/04/17 03:57:39;;;;;;;18.23;7.05;;;;;;;;;;5029088;28;20041;-80
2023/04/17 04:00:12;;;;;;;18.00;6.82;;;;;;;;;;5035778;28;20190;-81
2023/04/17 04:02:38;;;;;;;12.48;6.05;;;;;;;;;;5038406;28;20052;-80
2023/04/17 04:05:04;;;;;;;13.40;5.70;;;;;;;;;;5034375;28;20054;-81
2023/04/17 04:07:30;;;;;;;15.93;6.57;;;;;;;;;;5036287;28;20056;-80
2023/04/17 04:09:56;;;;;;;14.93;5.90;;;;;;;;;;5039780;28;20052;-79
2023/04/17 04:12:22;;;;;;;12.13;5.43;;;;;;;;;;5034435;28;20416;-79
2023/04/17 04:14:49;;;;;;;11.23;6.00;;;;;;;;;;5045748;28;20025;-80
2023/04/17 04:17:15;;;;;;;10.50;4.97;;;;;;;;;;5041524;28;20068;-79
2023/04/17 04:19:42;;;;;;;11.98;5.05;;;;;;;;;;5038136;28;20037;-79
2023/04/17 04:22:09;;;;;;;11.38;4.97;;;;;;;;;;5040977;28;20645;-80
2023/04/17 04:24:35;;;;;;;12.25;5.28;;;;;;;;;;5040796;28;20492;-80
2023/04/17 04:27:04;;;;;;;10.65;5.50;;;;;;;;;;5014931;28;20034;-80
2023/04/17 04:29:34;;;;;;;14.45;6.38;;;;;;;;;;5012331;28;20033;-81
2023/04/17 04:32:00;;;;;;;19.08;6.53;;;;;;;;;;5036094;28;22460;-80
2023/04/17 04:34:28;;;;;;;13.23;6.90;;;;;;;;;;5034592;28;20030;-80
2023/04/17 04:36:54;;;;;;;10.63;4.70;;;;;;;;;;5041537;28;20105;-80
2023/04/17 04:39:20;;;;;;;14.23;5.75;;;8.90;99.90;;;;;;5036794;28;20524;-79
2023/04/17 04:41:50;;;;;;;11.15;5.10;;;;;;;;;;5042098;28;20033;-82
2023/04/17 04:44:16;;;;;;;13.63;6.70;;;;;;;;;;5032080;28;20132;-85
2023/04/17 04:46:42;;;;;;;16.90;4.95;;;;;;;;;;5018039;28;20159;-81
2023/04/17 04:49:08;;;;;;;16.27;6.15;;;;;;;;;;5021671;28;20043;-80
2023/04/17 04:51:34;;;;;;;12.98;4.90;;;;;;;;;;5029597;28;20053;-79
2023/04/17 04:54:01;;;;;;;11.32;5.53;;;;;;;;;;5037105;28;20116;-80
2023/04/17 04:56:27;;;;;;;9.13;5.38;;;;;;;;;;5037511;28;20069;-81
2023/04/17 04:58:54;;;;;;;11.07;4.75;;;;;;;;;;5023951;28;20025;-79
2023/04/17 05:01:20;;;;;;;9.95;5.40;;;;;;;;;;5046704;28;20500;-80
2023/04/17 05:03:46;;;;;;;10.90;5.50;;;;;;;;;;5045634;28;20129;-79
2023/04/17 05:06:12;;;;;;;10.88;5.10;;;;;;;;;;5046910;28;20096;-81
2023/04/17 05:08:39;;;;;;;11.05;4.95;;;;;;;;;;5022497;28;20029;-80
2023/04/17 05:11:05;;;;;;;11.82;4.85;;;;;;;;;;5046494;28;20034;-80
2023/04/17 05:13:31;;;;;;;10.13;4.80;;;;;;;;;;5048163;28;20033;-80
2023/04/17 05:15:57;;;;;;;15.55;7.38;;;;;;;;;;5048525;28;20488;-80
2023/04/17 05:18:35;;;;;;;11.65;5.95;;;;;;;;;;5037609;28;20029;-79
2023/04/17 05:21:01;;;;;;;19.23;7.20;;;;;;;;;;5045731;28;20052;-80
2023/04/17 05:23:27;;;;;;;11.93;5.70;;;;;;;;;;5044145;28;20065;-80
2023/04/17 05:25:53;;;;;;;12.73;4.65;;;;;;;;;;5041520;28;20033;-80
2023/04/17 05:28:19;;;;;;;13.43;6.30;;;;;;;;;;5029123;28;20060;-81
2023/04/17 05:30:45;;;;;;;10.88;5.45;;;;;;;;;;5042890;28;20025;-80
2023/04/17 05:33:11;;;;;;;14.23;5.10;;;;;;;;;;5042035;28;20052;-80
2023/04/17 05:35:37;;;;;;;9.80;4.75;;;;;;;;;;5048344;28;20063;-80
2023/04/17 05:38:04;;;;;;;13.63;6.38;;;;;;;;;;5033437;28;20032;-82
2023/04/17 05:40:30;;;;;;;13.07;5.53;;;;;;;;;;5048236;28;20079;-81
2023/04/17 05:42:56;;;;;;;7.50;4.55;;;;;;;;;;5044177;28;20037;-81
2023/04/17 05:45:22;;;;;;;11.23;5.07;;;;;;;;;;5045575;28;20120;-81
2023/04/17 05:47:47;;;;;;;21.92;12.90;;;;;;;;;;5041230;28;20022;-81
2023/04/17 05:50:13;;;;;;;14.52;8.38;;;;;;;;;;5051357;28;20032;-81
2023/04/17 05:52:40;;;;;;;12.60;6.63;;;;;;;;;;5047212;28;20057;-82
2023/04/17 05:55:06;;;;;;;12.48;6.32;;;;;;;;;;5047961;28;20021;-82
2023/04/17 05:57:32;;;;;;;15.52;5.78;;;;;;;;;;5046554;28;20041;-82
2023/04/17 05:59:58;;;;;;;7.95;4.47;;;;;;;;;;5054097;28;20035;-82
2023/04/17 06:02:24;;;;;;;12.13;5.55;;;;;;;;;;5059571;28;20037;-83
2023/04/17 06:04:50;;;;;;;11.40;5.70;;;;;;;;;;5062905;28;20073;-82
2023/04/17 06:07:16;;;;;;;14.95;5.68;;;;;;;;;;5071296;28;20032;-83
2023/04/17 06:09:42;;;;;;;13.43;6.93;;;;;;;;;;5047176;28;20021;-82
2023/04/17 06:12:14;;;;;;;12.38;5.53;;;;;;;;;;5054724;28;20052;-81
2023/04/17 06:14:40;;;;;;;11.50;5.30;;;;;;;;;;5046657;28;20041;-82
2023/04/17 06:17:06;;;;;;;11.30;5.70;;;;;;;;;;5046313;28;20049;-82
2023/04/17 06:19:32;;;;;;;11.68;5.53;;;;;;;;;;5042036;28;20089;-83
2023/04/17 06:21:58;;;;;;;10.50;5.57;;;;;;;;;;5046843;28;20037;-82
2023/04/17 06:24:23;;;;;;;11.23;5.38;;;8.90;99.90;;;;;;5044330;28;20035;-82
2023/04/17 06:26:49;;;;;;;9.80;5.40;;;;;;;;;;5052012;28;20086;-81
2023/04/17 06:29:15;;;;;;;13.23;6.45;;;;;;;;;;5043397;28;20021;-82
2023/04/17 06:31:41;;;;;;;13.20;6.45;;;;;;;;;;5049600;28;20071;-82
2023/04/17 06:34:07;;;;;;;14.10;6.15;;;;;;;;;;5050163;28;20043;-83
2023/04/17 06:36:33;;;;;;;11.57;5.32;;;;;;;;;;5039344;28;20037;-82
2023/04/17 06:38:59;;;;;;;14.50;5.63;;;;;;;;;;5049409;28;20303;-81
2023/04/17 06:41:25;;;;;;;15.63;6.57;;;;;;;;;;5049655;28;20025;-82
2023/04/17 06:43:51;;;;;;;10.20;4.55;;;;;;;;;;5042456;28;20090;-82
2023/04/17 06:46:17;;;;;;;10.10;4.82;;;;;;;;;;5048707;28;20033;-82
2023/04/17 06:48:43;;;;;;;9.68;5.00;;;;;;;;;;5041182;28;20115;-80
2023/04/17 06:51:09;;;;;;;8.45;4.80;;;;;;;;;;5042580;28;20040;-82
2023/04/17 06:53:35;;;;;;;12.65;6.68;;;;;;;;;;5051435;28;20021;-82
2023/04/17 06:56:01;;;;;;;8.55;4.40;;;;;;;;;;5038251;28;20538;-82
2023/04/17 06:58:27;;;;;;;9.43;4.28;;;;;;;;;;5043847;28;20380;-79
2023/04/17 07:00:53;;;;;;;7.68;3.58;;;;;;;;;;5050559;28;20028;-83
2023/04/17 07:03:19;;;;;;;18.70;6.53;;;;;;;;;;5040093;28;20024;-81
2023/04/17 07:05:45;;;;;;;9.63;3.95;;;11.50;99.90;;;;;;5034396;28;20125;-82
2023/04/17 07:08:11;;;;;;;8.10;3.60;;;;;;;;;;5041539;28;20111;-81
2023/04/17 07:10:37;;;;;;;13.82;6.32;;;;;;;;;;5050960;28;20552;-80
2023/04/17 07:13:03;;;;;;;20.80;8.18;;;;;;;;;;5037576;28;20121;-82
2023/04/17 07:15:30;;;;;;;18.55;7.38;;;;;;;;;;5042353;28;20033;-82
2023/04/17 07:17:55;;;;;;;10.50;4.72;;;11.80;99.90;;;;;;5029898;28;20108;-80
2023/04/17 07:20:21;;;;;;;9.88;4.53;;;;;;;;;;5047444;28;20494;-82
2023/04/17 07:22:48;;;;;;;9.15;4.57;;;;;;;;;;5039631;28;20025;-83
2023/04/17 07:25:14;;;;;;;10.90;4.38;;;11.80;99.90;;;;;;5041935;28;20105;-80
2023/04/17 07:27:40;;;;;;;8.05;4.00;;;;;;;;;;5042341;28;20196;-80
2023/04/17 07:30:07;;;;;;;7.03;3.03;;;11.40;99.90;;;;;;5044549;28;20029;-82
2023/04/17 07:32:33;;;;;;;6.30;3.88;;;;;;;;;;5049128;28;20033;-80
2023/04/17 07:34:59;;;;;;;10.82;4.93;;;;;;;;;;5034313;28;20032;-82
2023/04/17 07:37:25;;;;;;;7.20;3.35;;;;;;;;;;5041405;28;20033;-82
2023/04/17 07:39:52;;;;;;;11.98;4.47;;;12.80;99.90;;;;;;5046546;28;20115;-83
2023/04/17 07:42:18;;;;;;;9.18;4.22;;;;;;;;;;5041923;28;20048;-82
2023/04/17 07:44:44;;;;;;;9.50;4.53;;;;;;;;;;5049629;28;20033;-83
2023/04/17 07:47:09;;;;;;;6.90;3.40;;;;;;;;;;5050846;28;20043;-83
2023/04/17 07:49:36;;;;;;;6.82;3.53;;;;;;;;;;5043728;28;20025;-82
2023/04/17 07:52:02;;;;;;;5.60;3.00;;;;;;;;;;5050678;28;20033;-79
2023/04/17 07:54:27;;;;;;;7.88;3.55;;;;;;;;;;5046504;28;20099;-82
2023/04/17 07:56:57;;;;;;;4.88;2.67;;;;;;;;;;5041100;28;20037;-83
2023/04/17 07:59:23;;;;;;;8.18;3.83;;;;;;;;;;5039558;28;20029;-83
2023/04/17 08:01:49;;;;;;;8.60;3.63;;;;;;;;;;5052253;28;20465;-81
2023/04/17 08:04:15;;;;;;;5.60;3.35;;;;;;;;;;5042041;28;20524;-81
2023/04/17 08:06:41;;;;;;;6.38;2.92;;;;;;;;;;5043273;28;20040;-82
2023/04/17 08:09:08;;;;;;;5.97;3.03;;;;;;;;;;5048966;28;20457;-82
2023/04/17 08:11:34;;;;;;;7.55;3.30;;;;;;;;;;5037331;28;20136;-83
2023/04/17 08:14:00;;;;;;;5.72;2.58;;;;;;;;;;5039239;28;20508;-81
2023/04/17 08:16:26;;;;;;;6.18;3.03;;;;;;;;;;5052761;28;20047;-82
2023/04/17 08:18:52;;;;;;;5.20;2.42;;;;;;;;;;5049934;28;20025;-82
2023/04/17 08:21:18;;;;;;;10.63;3.33;;;;;;;;;;5034833;28;20032;-82
2023/04/17 08:23:44;;;;;;;4.05;2.25;;;;;;;;;;5047139;28;20025;-82
2023/04/17 08:26:10;;;;;;;6.78;3.38;;;;;;;;;;5043460;28;20044;-82
2023/04/17 08:28:36;;;;;;;6.72;2.75;;;15.40;99.90;;;;;;5033493;28;20464;-81
2023/04/17 08:31:02;;;;;;;5.43;2.92;;;;;;;;;;5051314;28;20032;-80
2023/04/17 08:33:28;;;;;;;5.05;2.42;;;;;;;;;;5050601;28;20487;-80
2023/04/17 08:35:55;;;;;;;5.13;2.70;;;;;;;;;;5038841;28;20052;-82
2023/04/17 08:38:21;;;;;;;4.63;2.30;;;;;;;;;;5051114;28;20032;-82
2023/04/17 08:40:52;;;;;;;4.35;2.33;;;13.80;99.90;;;;;;5045286;28;21478;-82
2023/04/17 08:43:19;;;;;;;6.13;2.45;;;;;;;;;;5042553;28;20029;-81
2023/04/17 08:45:52;;;;;;;7.18;2.88;;;13.90;99.90;;;;;;5047447;28;20032;-82
2023/04/17 08:48:19;;;;;;;4.47;2.50;;;;;;;;;;5043001;28;20470;-82
2023/04/17 08:50:47;;;;;;;5.85;2.55;;;;;;;;;;5048017;28;20105;-82
2023/04/17 08:53:13;;;;;;;5.22;2.58;;;;;;;;;;5049619;28;20374;-83
2023/04/17 08:55:39;;;;;;;8.52;3.00;;;;;;;;;;5039926;28;20029;-83
2023/04/17 08:58:06;;;;;;;5.07;2.58;;;;;;;;;;5042829;28;20029;-82
2023/04/17 09:00:36;;;;;;;6.63;2.80;;;14.60;99.90;;;;;;5049665;28;20031;-82
2023/04/17 09:03:03;;;;;;;4.72;2.53;;;;;;;;;;5040950;28;20028;-82
2023/04/17 09:05:32;;;;;;;5.45;2.42;;;;;;;;;;5035383;28;20025;-82
2023/04/17 09:08:19;;;;;;;5.05;2.90;;;13.60;99.90;;;;;;5053211;28;20033;-82
2023/04/17 09:10:49;;;;;;;5.18;2.75;;;;;;;;;;5039395;28;20025;-82
2023/04/17 09:13:17;;;;;;;6.05;2.15;;;15.40;99.90;;;;;;5039685;28;20523;-81
2023/04/17 09:15:46;;;;;;;5.32;2.90;;;14.50;99.90;;;;;;5041787;28;20056;-81
2023/04/17 09:18:29;;;;;;;4.65;2.33;;;;;;;;;;5045517;28;20029;-81
2023/04/17 09:21:00;;;;;;;;;;;;;;;;;;5029293;28;20488;-82
2023/04/17 09:23:28;;;;;;;7.07;3.20;;;14.60;99.90;;;;;;5051072;28;19935;-80
2023/04/17 09:26:06;;;;;;;3.80;2.38;;;;;;;;;;5056099;28;20021;-82
2023/04/17 09:28:38;;;;;;;5.32;2.92;;;;;;;;;;5050213;28;20017;-81
2023/04/17 09:31:05;;;;;;;5.45;2.65;;;;;;;;;;5062333;28;20025;-83
2023/04/17 09:33:31;;;;;;;7.38;3.03;;;;;;;;;;5049577;28;20037;-82
2023/04/17 09:36:20;;;;;;;4.45;2.58;;;;;;;;;;5055208;28;20029;-81
2023/04/17 09:38:46;;;;;;;5.28;2.20;;;;;;;;;;5058214;28;20480;-83
2023/04/17 09:41:25;;;;;;;6.90;3.55;;;;;;;;;;5045707;28;20059;-82
2023/04/17 09:43:53;;;;;;;6.15;2.33;;;13.80;99.90;;;;;;5036490;28;20021;-82
2023/04/17 09:46:40;;;;;;;8.57;3.08;;;;;;;;;;5042921;28;20361;-83
2023/04/17 09:49:29;;;;;;;3.55;1.98;;;;;;;;;;5051188;28;20080;-81
2023/04/17 09:51:57;;;;;;;5.53;2.75;;;;;;;;;;5033946;28;20040;-80
2023/04/17 09:54:24;;;;;;;5.30;2.20;;;13.90;99.90;;;;;;5046609;28;20039;-81
2023/04/17 09:56:54;;;;;;;7.63;2.85;;;;;;;;;;5045282;28;20029;-81
2023/04/17 09:59:22;;;;;;;5.30;2.58;;;;;;;;;;5050918;28;20037;-81
2023/04/17 10:01:49;;;;;;;3.97;1.88;;;;;;;;;;5048958;28;20502;-80
2023/04/17 10:04:15;;;;;;;5.55;2.22;;;;;;;;;;5037811;28;20044;-80
2023/04/17 10:06:40;;;;;;;4.70;2.10;;;;;;;;;;5050161;28;20037;-80
2023/04/17 10:09:07;;;;;;;3.50;1.65;;;;;;;;;;5042299;28;20025;-83
2023/04/17 10:11:37;;;;;;;4.05;1.95;;;;;;;;;;5044016;28;20030;-80
2023/04/17 10:14:03;;;;;;;3.92;1.88;;;;;;;;;;5043286;28;20029;-81
2023/04/17 10:16:39;;;;;;;5.22;2.42;;;;;;;;;;5052116;28;20048;-82
2023/04/17 10:19:25;;;;;;;7.05;3.28;;;;;;;;;;5047117;28;20039;-81
2023/04/17 10:22:10;;;;;;;12.75;4.15;;;;;;;;;;5046656;28;20040;-80
2023/04/17 10:24:36;;;;;;;4.38;2.20;;;;;;;;;;5049072;28;20033;-82
2023/04/17 10:27:22;;;;;;;8.05;3.33;;;;;;;;;;5037945;28;20029;-83
2023/04/17 10:29:57;;;;;;;6.50;2.38;;;12.80;99.90;;;;;;5045261;28;20024;-83
2023/04/17 10:32:25;;;;;;;5.82;2.75;;;;;;;;;;5052849;28;20472;-84
2023/04/17 10:34:52;;;;;;;6.85;3.58;;;13.10;99.90;;;;;;5054618;28;20021;-83
2023/04/17 10:37:18;;;;;;;7.45;3.83;;;12.20;99.90;;;;;;5071407;28;20048;-84
2023/04/17 10:40:04;;;;;;;7.35;3.00;;;12.90;99.90;;;;;;5070795;28;20048;-84
2023/04/17 10:42:31;;;;;;;7.00;3.05;;;;;;;;;;5056223;28;20064;-83
2023/04/17 10:45:02;;;;;;;21.30;6.97;;;;;;;;;;5050481;28;20160;-82
2023/04/17 10:47:33;;;;;;;10.98;3.53;;;12.60;99.90;;;;;;5051949;28;20064;-81
2023/04/17 10:50:00;;;;;;;19.55;8.50;;;;;;;;;;5044281;28;20496;-81
2023/04/17 10:52:40;;;;;;;6.40;3.15;;;;;;;;;;5051355;28;20074;-81
2023/04/17 10:55:07;;;;;;;9.25;4.25;;;;;;;;;;5045796;28;20033;-81
2023/04/17 10:57:58;;;;;;;9.02;3.60;;;;;;;;;;5041083;28;20063;-85
2023/04/17 11:00:29;;;;;;;5.57;2.65;;;;;;;;;;5049889;28;20028;-81
2023/04/17 11:02:55;;;;;;;4.32;2.42;;;;;;;;;;5047630;28;20017;-82
2023/04/17 11:05:22;;;;;;;5.82;2.88;;;;;;;;;;5043381;28;20555;-82
2023/04/17 11:07:52;;;;;;;4.45;2.38;;;;;;;;;;5051946;28;20037;-80
2023/04/17 11:10:24;;;;;;;6.82;2.17;;;;;;;;;;5049509;28;20097;-83
2023/04/17 11:12:55;;;;;;;7.28;2.53;;;11.10;99.90;;;;;;5039941;28;20041;-79
2023/04/17 11:15:31;;;;;;;5.78;2.90;;;;;;;;;;5044728;28;20097;-80
2023/04/17 11:17:58;;;;;;;7.70;2.45;;;;;;;;;;5031801;28;20040;-81
2023/04/17 11:20:25;;;;;;;5.20;2.50;;;;;;;;;;5044774;28;20025;-81
2023/04/17 11:22:51;;;;;;;4.57;2.42;;;;;;;;;;5044820;28;20049;-83
2023/04/17 11:25:21;;;;;;;7.82;2.75;;;;;;;;;;5041117;28;20053;-80
2023/04/17 11:27:50;;;;;;;11.15;3.55;;;11.30;99.90;;;;;;5037398;28;20029;-83
2023/04/17 11:30:23;;;;;;;10.60;4.72;;;;;;;;;;5048650;28;20033;-80
2023/04/17 11:32:50;;;;;;;33.58;10.30;;;;;;;;;;5053737;28;20035;-81
2023/04/17 11:35:16;;;;;;;8.80;4.80;;;11.80;99.90;;;;;;5036611;28;20723;-80
2023/04/17 11:38:03;;;;;;;5.32;3.47;;;12.10;99.90;;;;;;5048695;28;20072;-83
2023/04/17 11:40:30;;;;;;;6.03;2.58;;;;;;;;;;5044389;28;20488;-81
2023/04/17 11:42:56;;;;;;;8.13;3.22;;;;;;;;;;5038403;28;20758;-81
2023/04/17 11:45:22;;;;;;;5.45;2.42;;;;;;;;;;5042797;28;20056;-83
2023/04/17 11:47:48;;;;;;;7.78;2.92;;;;;;;;;;5033506;28;20035;-81
2023/04/17 11:50:16;;;;;;;5.53;2.13;;;;;;;;;;5033293;28;20198;-80
2023/04/17 11:52:42;;;;;;;6.47;2.95;;;12.10;99.90;;;;;;5047779;28;20029;-80
2023/04/17 11:55:09;;;;;;;5.60;2.33;;;;;;;;;;5050455;28;20043;-81
2023/04/17 11:57:44;;;;;;;5.38;2.47;;;;;;;;;;5040823;28;20201;-81
2023/04/17 12:00:13;;;;;;;3.90;2.13;;;;;;;;;;5048776;28;20024;-81
2023/04/17 12:02:39;;;;;;;4.75;2.75;;;;;;;;;;5041919;28;20057;-81
2023/04/17 12:05:12;;;;;;;7.70;2.88;;;;;;;;;;5048880;28;20157;-82
2023/04/17 12:07:38;;;;;;;7.97;2.58;;;;;;;;;;5048530;28;20467;-81
2023/04/17 12:10:04;;;;;;;5.28;2.10;;;;;;;;;;5044010;28;20115;-81
2023/04/17 12:12:30;;;;;;;6.35;2.17;;;;;;;;;;5044627;28;20029;-83
2023/04/17 12:14:57;;;;;;;4.32;2.05;;;;;;;;;;5039568;28;20021;-81
2023/04/17 12:17:23;;;;;;;5.30;2.53;;;13.40;99.90;;;;;;5054975;28;20037;-81
2023/04/17 12:19:50;;;;;;;15.43;6.63;;;;;;;;;;5039271;28;20020;-81
2023/04/17 12:22:15;;;;;;;11.18;4.43;;;13.20;99.90;;;;;;5047565;28;20044;-81
2023/04/17 12:24:41;;;;;;;6.75;3.03;;;;;;;;;;5042346;28;20021;-80
2023/04/17 12:27:07;;;;;;;4.30;2.35;;;;;;;;;;5038962;28;20127;-81
2023/04/17 12:29:33;;;;;;;4.50;2.28;;;;;;;;;;5047346;28;20112;-80
2023/04/17 12:31:59;;;;;;;7.28;2.58;;;;;;;;;;5048290;28;20033;-82
2023/04/17 12:34:25;;;;;;;10.45;2.78;;;;;;;;;;5045292;28;20599;-80
2023/04/17 12:36:51;;;;;;;5.13;2.17;;;;;;;;;;5045137;28;20491;-80
2023/04/17 12:39:17;;;;;;;3.55;1.73;;;;;;;;;;5034241;28;20137;-82
2023/04/17 12:41:43;;;;;;;4.30;1.67;;;;;;;;;;5047681;28;20036;-81
2023/04/17 12:44:09;;;;;;;3.55;1.48;;;;;;;;;;5038168;28;20037;-81
2023/04/17 12:46:35;;;;;;;7.90;2.47;;;;;;;;;;5049680;28;20037;-81
2023/04/17 12:49:02;;;;;;;4.78;1.88;;;;;;;;;;5047762;28;20040;-81
2023/04/17 12:51:28;;;;;;;5.85;2.35;;;;;;;;;;5047047;28;20037;-81
2023/04/17 12:53:54;;;;;;;3.08;1.95;;;13.10;99.90;;;;;;5051660;28;20030;-82
2023/04/17 12:56:20;;;;;;;3.92;2.17;;;;;;;;;;5037160;28;20048;-82
2023/04/17 12:58:46;;;;;;;6.20;2.47;;;;;;;;;;5042035;28;20036;-81
2023/04/17 13:01:12;;;;;;;4.05;1.60;;;12.50;99.90;;;;;;5041889;28;20565;-80
2023/04/17 13:03:37;;;;;;;5.88;1.88;;;13.20;99.90;;;;;;5039136;28;20064;-80
2023/04/17 13:06:03;;;;;;;3.30;1.55;;;;;;;;;;5048395;28;20021;-82
2023/04/17 13:08:29;;;;;;;3.70;1.95;;;12.40;99.90;;;;;;5048333;28;20435;-79
2023/04/17 13:10:55;;;;;;;3.67;1.60;;;11.90;99.90;;;;;;5042353;28;20029;-82
2023/04/17 13:13:21;;;;;;;4.10;1.90;;;;;;;;;;5038012;28;20135;-81
2023/04/17 13:15:48;;;;;;;3.70;1.45;;;;;;;;;;5046977;28;20032;-81
2023/04/17 13:18:14;;;;;;;6.85;3.45;;;;;;;;;;5044828;28;20350;-81
2023/04/17 13:20:40;;;;;;;2.60;1.40;;;;;;;;;;5032565;28;20029;-82
2023/04/17 13:23:06;;;;;;;2.90;1.27;;;;;;;;;;5052224;28;20025;-82
2023/04/17 13:25:32;;;;;;;4.35;2.05;;;;;;;;;;5052527;28;20124;-79
2023/04/17 13:27:58;;;;;;;4.78;3.03;;;;;;;;;;5040344;28;20437;-80
2023/04/17 13:30:25;;;;;;;3.65;2.08;;;;;;;;;;5054302;28;20178;-80
2023/04/17 13:32:51;;;;;;;5.53;2.25;;;;;;;;;;5049765;28;20396;-81
2023/04/17 13:35:17;;;;;;;4.40;2.15;;;;;;;;;;5038472;28;20021;-80
2023/04/17 13:37:43;;;;;;;4.50;2.38;;;;;;;;;;5049554;28;20037;-79
2023/04/17 13:40:09;;;;;;;5.97;2.75;;;;;;;;;;5053341;28;20082;-80
2023/04/17 13:42:36;;;;;;;5.60;2.00;;;;;;;;;;5036802;28;20040;-81
2023/04/17 13:45:02;;;;;;;3.92;1.83;;;;;;;;;;5044740;28;20101;-83
2023/04/17 13:47:28;;;;;;;5.70;2.65;;;;;;;;;;5051962;28;20037;-82
2023/04/17 13:49:54;;;;;;;2.20;1.15;;;;;;;;;;5043860;28;20021;-81
2023/04/17 13:52:20;;;;;;;3.63;1.60;;;;;;;;;;5047463;28;20443;-80
2023/04/17 13:54:46;;;;;;;3.30;1.10;;;;;;;;;;5056332;28;20025;-79
2023/04/17 13:57:13;;;;;;;2.15;1.13;;;;;;;;;;5039355;28;20055;-80
2023/04/17 13:59:39;;;;;;;2.78;1.23;;;;;;;;;;5041198;28;20024;-82
2023/04/17 14:02:05;;;;;;;3.38;1.40;;;;;;;;;;5052264;28;20123;-82
2023/04/17 14:04:31;;;;;;;8.52;2.70;;;;;;;;;;5040406;28;20036;-80
2023/04/17 14:06:57;;;;;;;4.25;1.50;;;;;;;;;;5048483;28;20040;-82
2023/04/17 14:09:23;;;;;;;2.40;1.00;;;;;;;;;;5048871;28;20020;-79
2023/04/17 14:11:49;;;;;;;2.28;1.10;;;;;;;;;;5041386;28;20076;-79
2023/04/17 14:14:15;;;;;;;2.33;0.77;;;13.20;99.90;;;;;;5036811;28;20025;-79
2023/04/17 14:16:42;;;;;;;1.45;0.95;;;;;;;;;;5049393;28;21888;-79
2023/04/17 14:19:08;;;;;;;4.45;1.95;;;;;;;;;;5045151;28;20036;-80
2023/04/17 14:21:34;;;;;;;2.53;1.17;;;12.80;99.90;;;;;;5038015;28;20540;-80
2023/04/17 14:24:00;;;;;;;2.08;1.02;;;12.30;99.90;;;;;;5048791;28;20135;-79